sensor_id;sensor_type;location;lat;lon;timestamp;temperature;humidity
26990;DHT22;14537;47.788;11.858;2023-04-24T00:02:08;8.30;99.90
26990;DHT22;14537;47.788;11.858;2023-04-24T00:04:37;8.40;99.90
26990;DHT22;14537;47.788;11.858;2023-04-24T00:07:06;8.40;99.90
26990;DHT22;14537;47.788;11.858;2023-04-24T00:09:32;8.40;99.90
26990;DHT22;14537;47.788;11.858;2023-04-24T00:11:58;8.40;99.90
26990;DHT22;14537;47.788;11.858;2023-04-24T00:14:23;8.40;99.90
26990;DHT22;14537;47.788;11.858;2023-04-24T00:16:49;8.40;99.90
26990;DHT22;14537;47.788;11.858;2023-04-24T00:19:15;8.50;99.90
26990;DHT22;14537;47.788;11.858;2023-04-24T00:21:41;8.50;99.90
26990;DHT22;14537;47.788;11.858;2023-04-24T00:24:07;8.40;99.90
26990;DHT22;14537;47.788;11.858;2023-04-24T00:26:34;8.40;99.90
26990;DHT22;14537;47.788;11.858;2023-04-24T00:29:00;8.50;99.90
26990;DHT22;14537;47.788;11.858;2023-04-24T00:31:26;8.50;99.90
26990;DHT22;14537;47.788;11.858;2023-04-24T00:33:51;8.50;99.90
26990;DHT22;14537;47.788;11.858;2023-04-24T00:36:17;8.50;99.90
26990;DHT22;14537;47.788;11.858;2023-04-24T00:38:45;8.50;99.90
26990;DHT22;14537;47.788;11.858;2023-04-24T00:41:11;8.50;99.90
26990;DHT22;14537;47.788;11.858;2023-04-24T00:43:36;8.50;99.90
26990;DHT22;14537;47.788;11.858;2023-04-24T00:46:02;8.50;99.90
26990;DHT22;14537;47.788;11.858;2023-04-24T00:48:28;8.50;99.90
26990;DHT22;14537;47.788;11.858;2023-04-24T00:50:54;8.50;99.90
26990;DHT22;14537;47.788;11.858;2023-04-24T00:53:20;8.50;99.90
26990;DHT22;14537;47.788;11.858;2023-04-24T00:55:46;8.50;99.90
26990;DHT22;14537;47.788;11.858;2023-04-24T00:58:12;8.60;99.90
26990;DHT22;14537;47.788;11.858;2023-04-24T01:00:38;8.60;99.90
26990;DHT22;14537;47.788;11.858;2023-04-24T01:03:04;8.60;99.90
26990;DHT22;14537;47.788;11.858;2023-04-24T01:05:31;8.60;99.90
26990;DHT22;14537;47.788;11.858;2023-04-24T01:07:58;8.60;99.90
26990;DHT22;14537;47.788;11.858;2023-04-24T01:10:25;8.60;99.90
26990;DHT22;14537;47.788;11.858;2023-04-24T01:12:52;8.60;99.90
26990;DHT22;14537;47.788;11.858;2023-04-24T01:15:18;8.60;99.90
26990;DHT22;14537;47.788;11.858;2023-04-24T01:17:43;8.60;99.90
26990;DHT22;14537;47.788;11.858;2023-04-24T01:20:10;8.60;99.90
26990;DHT22;14537;47.788;11.858;2023-04-24T01:22:36;8.60;99.90
26990;DHT22;14537;47.788;11.858;2023-04-24T01:25:02;8.60;99.90
26990;DHT22;14537;47.788;11.858;2023-04-24T01:27:28;8.60;99.90
26990;DHT22;14537;47.788;11.858;2023-04-24T01:29:54;8.60;99.90
26990;DHT22;14537;47.788;11.858;2023-04-24T01:32:20;8.60;99.90
26990;DHT22;14537;47.788;11.858;2023-04-24T01:34:46;8.60;99.90
26990;DHT22;14537;47.788;11.858;2023-04-24T01:37:12;8.60;99.90
26990;DHT22;14537;47.788;11.858;2023-04-24T01:39:38;8.60;99.90
26990;DHT22;14537;47.788;11.858;2023-04-24T01:42:04;8.60;99.90
26990;DHT22;14537;47.788;11.858;2023-04-24T01:44:30;8.60;99.90
26990;DHT22;14537;47.788;11.858;2023-04-24T01:46:56;8.60;99.90
26990;DHT22;14537;47.788;11.858;2023-04-24T01:49:22;8.60;99.90
26990;DHT22;14537;47.788;11.858;2023-04-24T01:51:48;8.60;99.90
26990;DHT22;14537;47.788;11.858;2023-04-24T01:54:13;8.60;99.90
26990;DHT22;14537;47.788;11.858;2023-04-24T01:56:43;8.60;99.90
26990;DHT22;14537;47.788;11.858;2023-04-24T01:59:10;8.70;99.90
26990;DHT22;14537;47.788;11.858;2023-04-24T02:01:37;8.60;99.90
26990;DHT22;14537;47.788;11.858;2023-04-24T02:04:04;8.60;99.90
26990;DHT22;14537;47.788;11.858;2023-04-24T02:06:30;8.60;99.90
26990;DHT22;14537;47.788;11.858;2023-04-24T02:08:58;8.60;99.90
26990;DHT22;14537;47.788;11.858;2023-04-24T02:11:24;8.50;99.90
26990;DHT22;14537;47.788;11.858;2023-04-24T02:13:50;8.60;99.90
26990;DHT22;14537;47.788;11.858;2023-04-24T02:16:17;8.50;99.90
26990;DHT22;14537;47.788;11.858;2023-04-24T02:18:42;8.50;99.90
26990;DHT22;14537;47.788;11.858;2023-04-24T02:21:08;8.50;99.90
26990;DHT22;14537;47.788;11.858;2023-04-24T02:23:34;8.60;99.90
26990;DHT22;14537;47.788;11.858;2023-04-24T02:25:59;8.60;99.90
26990;DHT22;14537;47.788;11.858;2023-04-24T02:28:25;8.60;99.90
26990;DHT22;14537;47.788;11.858;2023-04-24T02:30:50;8.60;99.90
26990;DHT22;14537;47.788;11.858;2023-04-24T02:33:16;8.50;99.90
26990;DHT22;14537;47.788;11.858;2023-04-24T02:35:42;8.50;99.90
26990;DHT22;14537;47.788;11.858;2023-04-24T02:38:07;8.50;99.90
26990;DHT22;14537;47.788;11.858;2023-04-24T02:40:33;8.50;99.90
26990;DHT22;14537;47.788;11.858;2023-04-24T02:42:59;8.60;99.90
26990;DHT22;14537;47.788;11.858;2023-04-24T02:45:24;8.50;99.90
26990;DHT22;14537;47.788;11.858;2023-04-24T02:47:50;8.50;99.90
26990;DHT22;14537;47.788;11.858;2023-04-24T02:50:16;8.50;99.90
26990;DHT22;14537;47.788;11.858;2023-04-24T02:52:41;8.50;99.90
26990;DHT22;14537;47.788;11.858;2023-04-24T02:55:07;8.50;99.90
26990;DHT22;14537;47.788;11.858;2023-04-24T02:57:33;8.50;99.90
26990;DHT22;14537;47.788;11.858;2023-04-24T02:59:59;8.50;99.90
26990;DHT22;14537;47.788;11.858;2023-04-24T03:02:25;8.40;99.90
26990;DHT22;14537;47.788;11.858;2023-04-24T03:04:51;8.30;99.90
26990;DHT22;14537;47.788;11.858;2023-04-24T03:07:16;8.40;99.90
26990;DHT22;14537;47.788;11.858;2023-04-24T03:09:42;8.40;99.90
26990;DHT22;14537;47.788;11.858;2023-04-24T03:12:08;8.40;99.90
26990;DHT22;14537;47.788;11.858;2023-04-24T03:14:33;8.40;99.90
26990;DHT22;14537;47.788;11.858;2023-04-24T03:17:00;8.30;99.90
26990;DHT22;14537;47.788;11.858;2023-04-24T03:19:25;8.40;99.90
26990;DHT22;14537;47.788;11.858;2023-04-24T03:21:51;8.30;99.90
26990;DHT22;14537;47.788;11.858;2023-04-24T03:24:16;8.20;99.90
26990;DHT22;14537;47.788;11.858;2023-04-24T03:26:42;8.20;99.90
26990;DHT22;14537;47.788;11.858;2023-04-24T03:29:08;8.20;99.90
26990;DHT22;14537;47.788;11.858;2023-04-24T03:31:33;8.10;99.90
26990;DHT22;14537;47.788;11.858;2023-04-24T03:33:59;8.10;99.90
26990;DHT22;14537;47.788;11.858;2023-04-24T03:36:24;8.10;99.90
26990;DHT22;14537;47.788;11.858;2023-04-24T03:38:51;8.10;99.90
26990;DHT22;14537;47.788;11.858;2023-04-24T03:41:17;8.10;99.90
26990;DHT22;14537;47.788;11.858;2023-04-24T03:43:42;8.10;99.90
26990;DHT22;14537;47.788;11.858;2023-04-24T03:46:08;8.10;99.90
26990;DHT22;14537;47.788;11.858;2023-04-24T03:48:35;8.10;99.90
26990;DHT22;14537;47.788;11.858;2023-04-24T03:51:00;8.20;99.90
26990;DHT22;14537;47.788;11.858;2023-04-24T03:53:26;8.10;99.90
26990;DHT22;14537;47.788;11.858;2023-04-24T03:55:53;8.10;99.90
26990;DHT22;14537;47.788;11.858;2023-04-24T03:58:18;8.10;99.90
26990;DHT22;14537;47.788;11.858;2023-04-24T04:00:44;8.10;99.90
26990;DHT22;14537;47.788;11.858;2023-04-24T04:03:11;8.10;99.90
26990;DHT22;14537;47.788;11.858;2023-04-24T04:05:38;8.10;99.90
26990;DHT22;14537;47.788;11.858;2023-04-24T04:08:04;8.10;99.90
26990;DHT22;14537;47.788;11.858;2023-04-24T04:10:29;8.10;99.90
26990;DHT22;14537;47.788;11.858;2023-04-24T04:12:55;8.10;99.90
26990;DHT22;14537;47.788;11.858;2023-04-24T04:15:21;8.10;99.90
26990;DHT22;14537;47.788;11.858;2023-04-24T04:17:46;8.10;99.90
26990;DHT22;14537;47.788;11.858;2023-04-24T04:20:12;8.10;99.90
26990;DHT22;14537;47.788;11.858;2023-04-24T04:22:38;8.00;99.90
26990;DHT22;14537;47.788;11.858;2023-04-24T04:25:05;8.10;99.90
26990;DHT22;14537;47.788;11.858;2023-04-24T04:27:31;8.00;99.90
26990;DHT22;14537;47.788;11.858;2023-04-24T04:29:58;8.00;99.90
26990;DHT22;14537;47.788;11.858;2023-04-24T04:32:27;8.10;99.90
26990;DHT22;14537;47.788;11.858;2023-04-24T04:34:53;8.10;99.90
26990;DHT22;14537;47.788;11.858;2023-04-24T04:37:19;8.10;99.90
26990;DHT22;14537;47.788;11.858;2023-04-24T04:39:44;8.00;99.90
26990;DHT22;14537;47.788;11.858;2023-04-24T04:42:10;8.00;99.90
26990;DHT22;14537;47.788;11.858;2023-04-24T04:44:35;8.10;99.90
26990;DHT22;14537;47.788;11.858;2023-04-24T04:47:02;8.00;99.90
26990;DHT22;14537;47.788;11.858;2023-04-24T04:49:31;8.10;99.90
26990;DHT22;14537;47.788;11.858;2023-04-24T04:51:57;8.10;99.90
26990;DHT22;14537;47.788;11.858;2023-04-24T04:54:22;8.10;99.90
26990;DHT22;14537;47.788;11.858;2023-04-24T04:56:50;8.10;99.90
26990;DHT22;14537;47.788;11.858;2023-04-24T04:59:16;8.10;99.90
26990;DHT22;14537;47.788;11.858;2023-04-24T05:01:41;8.00;99.90
26990;DHT22;14537;47.788;11.858;2023-04-24T05:04:07;8.10;99.90
26990;DHT22;14537;47.788;11.858;2023-04-24T05:06:33;8.00;99.90
26990;DHT22;14537;47.788;11.858;2023-04-24T05:08:58;8.00;99.90
26990;DHT22;14537;47.788;11.858;2023-04-24T05:11:24;8.00;99.90
26990;DHT22;14537;47.788;11.858;2023-04-24T05:13:49;8.10;99.90
26990;DHT22;14537;47.788;11.858;2023-04-24T05:16:15;8.10;99.90
26990;DHT22;14537;47.788;11.858;2023-04-24T05:18:41;8.10;99.90
26990;DHT22;14537;47.788;11.858;2023-04-24T05:21:06;8.10;99.90
26990;DHT22;14537;47.788;11.858;2023-04-24T05:23:32;8.10;99.90
26990;DHT22;14537;47.788;11.858;2023-04-24T05:25:57;8.20;99.90
26990;DHT22;14537;47.788;11.858;2023-04-24T05:28:23;8.20;99.90
26990;DHT22;14537;47.788;11.858;2023-04-24T05:30:51;8.20;99.90
26990;DHT22;14537;47.788;11.858;2023-04-24T05:33:17;8.20;99.90
26990;DHT22;14537;47.788;11.858;2023-04-24T05:35:42;8.20;99.90
26990;DHT22;14537;47.788;11.858;2023-04-24T05:38:12;8.30;99.90
26990;DHT22;14537;47.788;11.858;2023-04-24T05:40:38;8.20;99.90
26990;DHT22;14537;47.788;11.858;2023-04-24T05:43:04;8.30;99.90
26990;DHT22;14537;47.788;11.858;2023-04-24T05:45:30;8.30;99.90
26990;DHT22;14537;47.788;11.858;2023-04-24T05:47:56;8.40;99.90
26990;DHT22;14537;47.788;11.858;2023-04-24T05:50:21;8.40;99.90
26990;DHT22;14537;47.788;11.858;2023-04-24T05:52:47;8.50;99.90
26990;DHT22;14537;47.788;11.858;2023-04-24T05:55:13;8.70;99.90
26990;DHT22;14537;47.788;11.858;2023-04-24T05:57:38;8.70;99.90
26990;DHT22;14537;47.788;11.858;2023-04-24T06:00:05;8.70;99.90
26990;DHT22;14537;47.788;11.858;2023-04-24T06:02:31;8.60;99.90
26990;DHT22;14537;47.788;11.858;2023-04-24T06:04:58;8.70;99.90
26990;DHT22;14537;47.788;11.858;2023-04-24T06:07:25;8.70;99.90
26990;DHT22;14537;47.788;11.858;2023-04-24T06:09:52;8.80;99.90
26990;DHT22;14537;47.788;11.858;2023-04-24T06:12:17;8.90;99.90
26990;DHT22;14537;47.788;11.858;2023-04-24T06:14:43;9.00;99.90
26990;DHT22;14537;47.788;11.858;2023-04-24T06:17:09;9.00;99.90
26990;DHT22;14537;47.788;11.858;2023-04-24T06:19:34;9.10;99.90
26990;DHT22;14537;47.788;11.858;2023-04-24T06:22:00;9.10;99.90
26990;DHT22;14537;47.788;11.858;2023-04-24T06:24:29;9.10;99.90
26990;DHT22;14537;47.788;11.858;2023-04-24T06:26:54;9.20;99.90
26990;DHT22;14537;47.788;11.858;2023-04-24T06:29:20;9.30;99.90
26990;DHT22;14537;47.788;11.858;2023-04-24T06:31:46;9.40;99.90
26990;DHT22;14537;47.788;11.858;2023-04-24T06:34:11;9.40;99.90
26990;DHT22;14537;47.788;11.858;2023-04-24T06:36:37;9.50;99.90
26990;DHT22;14537;47.788;11.858;2023-04-24T06:39:03;9.50;99.90
26990;DHT22;14537;47.788;11.858;2023-04-24T06:41:29;9.30;99.90
26990;DHT22;14537;47.788;11.858;2023-04-24T06:43:55;9.10;99.90
26990;DHT22;14537;47.788;11.858;2023-04-24T06:46:21;9.10;99.90
26990;DHT22;14537;47.788;11.858;2023-04-24T06:48:52;9.20;99.90
26990;DHT22;14537;47.788;11.858;2023-04-24T06:51:24;9.40;99.90
26990;DHT22;14537;47.788;11.858;2023-04-24T06:53:50;9.40;99.90
26990;DHT22;14537;47.788;11.858;2023-04-24T06:56:16;9.20;99.90
26990;DHT22;14537;47.788;11.858;2023-04-24T06:58:42;9.20;99.90
26990;DHT22;14537;47.788;11.858;2023-04-24T07:01:07;9.30;99.90
26990;DHT22;14537;47.788;11.858;2023-04-24T07:03:33;9.40;99.90
26990;DHT22;14537;47.788;11.858;2023-04-24T07:05:58;9.40;99.90
26990;DHT22;14537;47.788;11.858;2023-04-24T07:08:24;9.40;99.90
26990;DHT22;14537;47.788;11.858;2023-04-24T07:10:50;9.40;99.90
26990;DHT22;14537;47.788;11.858;2023-04-24T07:13:16;9.40;99.90
26990;DHT22;14537;47.788;11.858;2023-04-24T07:15:42;9.50;99.90
26990;DHT22;14537;47.788;11.858;2023-04-24T07:18:08;9.50;99.90
26990;DHT22;14537;47.788;11.858;2023-04-24T07:20:34;9.80;99.90
26990;DHT22;14537;47.788;11.858;2023-04-24T07:23:00;9.90;99.90
26990;DHT22;14537;47.788;11.858;2023-04-24T07:25:25;9.80;99.90
26990;DHT22;14537;47.788;11.858;2023-04-24T07:27:51;9.80;99.90
26990;DHT22;14537;47.788;11.858;2023-04-24T07:30:17;9.70;99.90
26990;DHT22;14537;47.788;11.858;2023-04-24T07:32:43;9.70;99.90
26990;DHT22;14537;47.788;11.858;2023-04-24T07:35:09;9.70;99.90
26990;DHT22;14537;47.788;11.858;2023-04-24T07:37:35;9.70;99.90
26990;DHT22;14537;47.788;11.858;2023-04-24T07:40:01;9.60;99.90
26990;DHT22;14537;47.788;11.858;2023-04-24T07:42:27;9.60;99.90
26990;DHT22;14537;47.788;11.858;2023-04-24T07:44:53;9.60;99.90
26990;DHT22;14537;47.788;11.858;2023-04-24T07:47:19;9.50;99.90
26990;DHT22;14537;47.788;11.858;2023-04-24T07:49:44;9.60;99.90
26990;DHT22;14537;47.788;11.858;2023-04-24T07:52:10;9.70;99.90
26990;DHT22;14537;47.788;11.858;2023-04-24T07:54:36;9.60;99.90
26990;DHT22;14537;47.788;11.858;2023-04-24T07:57:03;9.80;99.90
26990;DHT22;14537;47.788;11.858;2023-04-24T07:59:28;9.90;99.90
26990;DHT22;14537;47.788;11.858;2023-04-24T08:01:54;10.00;99.90
26990;DHT22;14537;47.788;11.858;2023-04-24T08:04:19;10.00;99.90
26990;DHT22;14537;47.788;11.858;2023-04-24T08:06:47;9.90;99.90
26990;DHT22;14537;47.788;11.858;2023-04-24T08:09:13;9.90;99.90
26990;DHT22;14537;47.788;11.858;2023-04-24T08:11:38;9.90;99.90
26990;DHT22;14537;47.788;11.858;2023-04-24T08:14:04;10.00;99.90
26990;DHT22;14537;47.788;11.858;2023-04-24T08:16:30;9.80;99.90
26990;DHT22;14537;47.788;11.858;2023-04-24T08:18:57;9.90;99.90
26990;DHT22;14537;47.788;11.858;2023-04-24T08:21:23;9.90;99.90
26990;DHT22;14537;47.788;11.858;2023-04-24T08:23:48;9.80;99.90
26990;DHT22;14537;47.788;11.858;2023-04-24T08:26:14;9.60;99.90
26990;DHT22;14537;47.788;11.858;2023-04-24T08:28:40;9.50;99.90
26990;DHT22;14537;47.788;11.858;2023-04-24T08:31:05;9.50;99.90
26990;DHT22;14537;47.788;11.858;2023-04-24T08:33:31;9.50;99.90
26990;DHT22;14537;47.788;11.858;2023-04-24T08:36:02;9.60;99.90
26990;DHT22;14537;47.788;11.858;2023-04-24T08:38:27;9.50;99.90
26990;DHT22;14537;47.788;11.858;2023-04-24T08:40:53;9.40;99.90
26990;DHT22;14537;47.788;11.858;2023-04-24T08:43:21;9.40;99.90
26990;DHT22;14537;47.788;11.858;2023-04-24T08:45:47;9.40;99.90
26990;DHT22;14537;47.788;11.858;2023-04-24T08:48:13;9.40;99.90
26990;DHT22;14537;47.788;11.858;2023-04-24T08:50:40;9.40;99.90
26990;DHT22;14537;47.788;11.858;2023-04-24T08:53:08;9.20;99.90
26990;DHT22;14537;47.788;11.858;2023-04-24T08:55:34;9.20;99.90
26990;DHT22;14537;47.788;11.858;2023-04-24T08:58:01;9.10;99.90
26990;DHT22;14537;47.788;11.858;2023-04-24T09:00:28;9.10;99.90
26990;DHT22;14537;47.788;11.858;2023-04-24T09:02:54;9.00;99.90
26990;DHT22;14537;47.788;11.858;2023-04-24T09:05:21;8.80;99.90
26990;DHT22;14537;47.788;11.858;2023-04-24T09:07:54;8.90;99.90
26990;DHT22;14537;47.788;11.858;2023-04-24T09:10:24;8.80;99.90
26990;DHT22;14537;47.788;11.858;2023-04-24T09:12:51;8.90;99.90
26990;DHT22;14537;47.788;11.858;2023-04-24T09:15:18;9.00;99.90
26990;DHT22;14537;47.788;11.858;2023-04-24T09:17:46;9.10;99.90
26990;DHT22;14537;47.788;11.858;2023-04-24T09:20:12;9.20;99.90
26990;DHT22;14537;47.788;11.858;2023-04-24T09:22:37;9.10;99.90
26990;DHT22;14537;47.788;11.858;2023-04-24T09:25:05;9.20;99.90
26990;DHT22;14537;47.788;11.858;2023-04-24T09:27:33;9.30;99.90
26990;DHT22;14537;47.788;11.858;2023-04-24T09:29:58;9.30;99.90
26990;DHT22;14537;47.788;11.858;2023-04-24T09:32:25;9.10;99.90
26990;DHT22;14537;47.788;11.858;2023-04-24T09:35:06;8.90;99.90
26990;DHT22;14537;47.788;11.858;2023-04-24T09:37:38;8.90;99.90
26990;DHT22;14537;47.788;11.858;2023-04-24T09:40:22;8.80;99.90
26990;DHT22;14537;47.788;11.858;2023-04-24T09:42:57;8.90;99.90
26990;DHT22;14537;47.788;11.858;2023-04-24T09:45:36;9.10;99.90
26990;DHT22;14537;47.788;11.858;2023-04-24T09:48:02;9.20;99.90
26990;DHT22;14537;47.788;11.858;2023-04-24T09:50:30;9.20;99.90
26990;DHT22;14537;47.788;11.858;2023-04-24T09:53:03;9.40;99.90
26990;DHT22;14537;47.788;11.858;2023-04-24T09:55:29;9.60;99.90
26990;DHT22;14537;47.788;11.858;2023-04-24T10:00:24;10.00;99.90
26990;DHT22;14537;47.788;11.858;2023-04-24T10:02:53;10.10;99.90
26990;DHT22;14537;47.788;11.858;2023-04-24T10:05:23;10.20;99.90
26990;DHT22;14537;47.788;11.858;2023-04-24T10:07:49;10.50;99.90
26990;DHT22;14537;47.788;11.858;2023-04-24T10:10:14;10.70;99.90
26990;DHT22;14537;47.788;11.858;2023-04-24T10:12:40;10.80;99.90
26990;DHT22;14537;47.788;11.858;2023-04-24T10:15:09;10.40;99.90
26990;DHT22;14537;47.788;11.858;2023-04-24T10:17:35;10.40;99.90
26990;DHT22;14537;47.788;11.858;2023-04-24T10:20:01;10.40;99.90
26990;DHT22;14537;47.788;11.858;2023-04-24T10:22:28;10.40;99.90
26990;DHT22;14537;47.788;11.858;2023-04-24T10:24:56;10.60;99.90
26990;DHT22;14537;47.788;11.858;2023-04-24T10:27:23;10.60;99.90
26990;DHT22;14537;47.788;11.858;2023-04-24T10:29:51;10.50;99.90
26990;DHT22;14537;47.788;11.858;2023-04-24T10:32:18;10.50;99.90
26990;DHT22;14537;47.788;11.858;2023-04-24T10:34:44;10.70;99.90
26990;DHT22;14537;47.788;11.858;2023-04-24T10:37:10;10.40;99.90
26990;DHT22;14537;47.788;11.858;2023-04-24T10:39:36;10.50;99.90
26990;DHT22;14537;47.788;11.858;2023-04-24T10:42:14;10.70;99.90
26990;DHT22;14537;47.788;11.858;2023-04-24T10:44:40;10.90;99.90
26990;DHT22;14537;47.788;11.858;2023-04-24T10:47:13;10.90;99.90
26990;DHT22;14537;47.788;11.858;2023-04-24T10:49:39;10.80;99.90
26990;DHT22;14537;47.788;11.858;2023-04-24T10:52:05;10.60;99.90
26990;DHT22;14537;47.788;11.858;2023-04-24T11:00:14;10.50;99.90
26990;DHT22;14537;47.788;11.858;2023-04-24T11:02:41;10.50;99.90
26990;DHT22;14537;47.788;11.858;2023-04-24T11:05:15;10.60;99.90
26990;DHT22;14537;47.788;11.858;2023-04-24T11:08:43;10.60;99.90
26990;DHT22;14537;47.788;11.858;2023-04-24T11:13:25;10.70;99.90
26990;DHT22;14537;47.788;11.858;2023-04-24T11:18:39;10.90;99.90
26990;DHT22;14537;47.788;11.858;2023-04-24T11:21:12;11.00;99.90
26990;DHT22;14537;47.788;11.858;2023-04-24T11:23:39;11.00;99.90
26990;DHT22;14537;47.788;11.858;2023-04-24T11:26:21;10.90;99.90
26990;DHT22;14537;47.788;11.858;2023-04-24T11:28:50;11.00;99.90
26990;DHT22;14537;47.788;11.858;2023-04-24T11:31:38;11.00;99.90
26990;DHT22;14537;47.788;11.858;2023-04-24T11:34:08;10.80;99.90
26990;DHT22;14537;47.788;11.858;2023-04-24T11:36:35;10.70;99.90
26990;DHT22;14537;47.788;11.858;2023-04-24T11:39:01;10.60;99.90
26990;DHT22;14537;47.788;11.858;2023-04-24T11:41:28;10.40;99.90
26990;DHT22;14537;47.788;11.858;2023-04-24T11:43:54;10.30;99.90
26990;DHT22;14537;47.788;11.858;2023-04-24T11:46:21;10.20;99.90
26990;DHT22;14537;47.788;11.858;2023-04-24T11:48:47;9.60;99.90
26990;DHT22;14537;47.788;11.858;2023-04-24T11:51:13;8.80;99.90
26990;DHT22;14537;47.788;11.858;2023-04-24T11:53:39;8.50;99.90
26990;DHT22;14537;47.788;11.858;2023-04-24T11:56:05;8.40;99.90
26990;DHT22;14537;47.788;11.858;2023-04-24T11:58:40;8.40;99.90
26990;DHT22;14537;47.788;11.858;2023-04-24T12:01:05;8.50;99.90
26990;DHT22;14537;47.788;11.858;2023-04-24T12:03:31;8.50;99.90
26990;DHT22;14537;47.788;11.858;2023-04-24T12:06:07;8.80;99.90
26990;DHT22;14537;47.788;11.858;2023-04-24T12:08:36;8.90;99.90
26990;DHT22;14537;47.788;11.858;2023-04-24T12:11:04;9.20;99.90
26990;DHT22;14537;47.788;11.858;2023-04-24T12:13:30;9.40;99.90
26990;DHT22;14537;47.788;11.858;2023-04-24T12:15:59;9.50;99.90
26990;DHT22;14537;47.788;11.858;2023-04-24T12:18:25;9.70;99.90
26990;DHT22;14537;47.788;11.858;2023-04-24T12:20:51;10.00;99.90
26990;DHT22;14537;47.788;11.858;2023-04-24T12:23:34;10.10;99.90
26990;DHT22;14537;47.788;11.858;2023-04-24T12:26:04;10.40;99.90
26990;DHT22;14537;47.788;11.858;2023-04-24T12:28:37;10.50;99.90
26990;DHT22;14537;47.788;11.858;2023-04-24T12:31:03;10.70;99.90
26990;DHT22;14537;47.788;11.858;2023-04-24T12:33:33;10.60;99.90
26990;DHT22;14537;47.788;11.858;2023-04-24T12:35:59;10.60;99.90
26990;DHT22;14537;47.788;11.858;2023-04-24T12:38:28;10.60;99.90
26990;DHT22;14537;47.788;11.858;2023-04-24T12:41:11;10.80;99.90
26990;DHT22;14537;47.788;11.858;2023-04-24T12:43:37;10.80;99.90
26990;DHT22;14537;47.788;11.858;2023-04-24T12:46:03;10.90;99.90
26990;DHT22;14537;47.788;11.858;2023-04-24T12:48:30;10.90;99.90
26990;DHT22;14537;47.788;11.858;2023-04-24T12:50:59;10.90;99.90
26990;DHT22;14537;47.788;11.858;2023-04-24T12:53:28;10.80;99.90
26990;DHT22;14537;47.788;11.858;2023-04-24T12:55:57;10.70;99.90
26990;DHT22;14537;47.788;11.858;2023-04-24T12:58:23;10.90;99.90
26990;DHT22;14537;47.788;11.858;2023-04-24T13:00:48;11.20;99.90
26990;DHT22;14537;47.788;11.858;2023-04-24T13:03:14;11.20;99.90
26990;DHT22;14537;47.788;11.858;2023-04-24T13:05:41;11.10;99.90
26990;DHT22;14537;47.788;11.858;2023-04-24T13:08:07;11.10;99.90
26990;DHT22;14537;47.788;11.858;2023-04-24T13:10:33;11.20;99.90
26990;DHT22;14537;47.788;11.858;2023-04-24T13:12:59;11.70;99.90
26990;DHT22;14537;47.788;11.858;2023-04-24T13:15:25;11.40;99.90
26990;DHT22;14537;47.788;11.858;2023-04-24T13:17:50;11.80;99.90
26990;DHT22;14537;47.788;11.858;2023-04-24T13:20:16;11.60;99.90
26990;DHT22;14537;47.788;11.858;2023-04-24T13:22:42;11.70;99.90
26990;DHT22;14537;47.788;11.858;2023-04-24T13:25:08;11.90;99.90
26990;DHT22;14537;47.788;11.858;2023-04-24T13:27:34;12.10;99.90
26990;DHT22;14537;47.788;11.858;2023-04-24T13:30:00;11.60;99.90
26990;DHT22;14537;47.788;11.858;2023-04-24T13:32:25;11.10;99.90
26990;DHT22;14537;47.788;11.858;2023-04-24T13:34:52;11.10;99.90
26990;DHT22;14537;47.788;11.858;2023-04-24T13:37:17;11.20;99.90
26990;DHT22;14537;47.788;11.858;2023-04-24T13:39:43;11.40;99.90
26990;DHT22;14537;47.788;11.858;2023-04-24T13:42:09;11.60;99.90
26990;DHT22;14537;47.788;11.858;2023-04-24T13:44:34;11.40;99.90
26990;DHT22;14537;47.788;11.858;2023-04-24T13:47:00;11.10;99.90
26990;DHT22;14537;47.788;11.858;2023-04-24T13:49:26;10.20;99.90
26990;DHT22;14537;47.788;11.858;2023-04-24T13:51:54;9.60;99.90
26990;DHT22;14537;47.788;11.858;2023-04-24T13:54:19;9.40;99.90
26990;DHT22;14537;47.788;11.858;2023-04-24T13:56:45;9.50;99.90
26990;DHT22;14537;47.788;11.858;2023-04-24T13:59:12;9.50;99.90
26990;DHT22;14537;47.788;11.858;2023-04-24T14:01:38;9.70;99.90
26990;DHT22;14537;47.788;11.858;2023-04-24T14:04:04;10.00;99.90
26990;DHT22;14537;47.788;11.858;2023-04-24T14:06:29;10.30;99.90
26990;DHT22;14537;47.788;11.858;2023-04-24T14:08:56;10.70;99.90
26990;DHT22;14537;47.788;11.858;2023-04-24T14:11:22;11.20;99.90
26990;DHT22;14537;47.788;11.858;2023-04-24T14:13:48;11.10;99.90
26990;DHT22;14537;47.788;11.858;2023-04-24T14:16:14;11.40;99.90
26990;DHT22;14537;47.788;11.858;2023-04-24T14:18:40;11.20;99.90
26990;DHT22;14537;47.788;11.858;2023-04-24T14:21:05;11.70;99.90
26990;DHT22;14537;47.788;11.858;2023-04-24T14:23:31;12.00;99.90
26990;DHT22;14537;47.788;11.858;2023-04-24T14:25:58;11.60;99.90
26990;DHT22;14537;47.788;11.858;2023-04-24T14:28:24;11.40;99.90
26990;DHT22;14537;47.788;11.858;2023-04-24T14:30:50;11.50;99.90
26990;DHT22;14537;47.788;11.858;2023-04-24T14:33:17;12.20;99.90
26990;DHT22;14537;47.788;11.858;2023-04-24T14:35:42;13.30;99.90
26990;DHT22;14537;47.788;11.858;2023-04-24T14:38:09;13.20;99.90
26990;DHT22;14537;47.788;11.858;2023-04-24T14:40:35;12.20;99.90
26990;DHT22;14537;47.788;11.858;2023-04-24T14:43:00;12.10;99.90
26990;DHT22;14537;47.788;11.858;2023-04-24T14:45:26;11.80;99.90
26990;DHT22;14537;47.788;11.858;2023-04-24T14:47:53;11.50;99.90
26990;DHT22;14537;47.788;11.858;2023-04-24T14:50:19;11.60;99.90
26990;DHT22;14537;47.788;11.858;2023-04-24T14:52:45;11.60;99.90
26990;DHT22;14537;47.788;11.858;2023-04-24T14:55:11;11.80;99.90
26990;DHT22;14537;47.788;11.858;2023-04-24T14:57:37;12.40;99.90
26990;DHT22;14537;47.788;11.858;2023-04-24T15:00:04;12.10;99.90
26990;DHT22;14537;47.788;11.858;2023-04-24T15:02:32;12.30;99.90
26990;DHT22;14537;47.788;11.858;2023-04-24T15:04:58;12.60;99.90
26990;DHT22;14537;47.788;11.858;2023-04-24T15:07:24;12.90;99.90
26990;DHT22;14537;47.788;11.858;2023-04-24T15:09:49;13.10;95.90
26990;DHT22;14537;47.788;11.858;2023-04-24T15:12:15;13.10;95.00
26990;DHT22;14537;47.788;11.858;2023-04-24T15:14:41;12.60;94.80
26990;DHT22;14537;47.788;11.858;2023-04-24T15:17:07;12.90;94.20
26990;DHT22;14537;47.788;11.858;2023-04-24T15:19:32;12.70;94.30
26990;DHT22;14537;47.788;11.858;2023-04-24T15:21:58;12.80;95.10
26990;DHT22;14537;47.788;11.858;2023-04-24T15:24:23;13.30;94.20
26990;DHT22;14537;47.788;11.858;2023-04-24T15:26:49;14.40;93.90
26990;DHT22;14537;47.788;11.858;2023-04-24T15:29:15;15.30;90.80
26990;DHT22;14537;47.788;11.858;2023-04-24T15:31:41;15.90;90.80
26990;DHT22;14537;47.788;11.858;2023-04-24T15:34:06;15.50;88.90
26990;DHT22;14537;47.788;11.858;2023-04-24T15:36:32;13.90;89.50